sensor_id;sensor_type;location;lat;lon;timestamp;pressure;altitude;pressure_sealevel;temperature;humidity
48156;BME280;35568;48.104;11.782;2023-04-06T00:01:51;95583.08;;;-0.12;42.97
48156;BME280;35568;48.104;11.782;2023-04-06T00:04:17;95583.73;;;-0.29;43.16
48156;BME280;35568;48.104;11.782;2023-04-06T00:06:44;95580.59;;;-0.36;43.47
48156;BME280;35568;48.104;11.782;2023-04-06T00:09:11;95577.84;;;-0.51;43.60
48156;BME280;35568;48.104;11.782;2023-04-06T00:11:38;95577.19;;;-0.71;43.61
48156;BME280;35568;48.104;11.782;2023-04-06T00:14:05;95577.96;;;-0.62;43.85
48156;BME280;35568;48.104;11.782;2023-04-06T00:16:32;95574.56;;;-0.46;44.00
48156;BME280;35568;48.104;11.782;2023-04-06T00:18:58;95577.04;;;-0.63;44.16
48156;BME280;35568;48.104;11.782;2023-04-06T00:21:25;95579.91;;;-0.52;43.90
48156;BME280;35568;48.104;11.782;2023-04-06T00:23:52;95576.50;;;-0.07;44.14
48156;BME280;35568;48.104;11.782;2023-04-06T00:26:18;95573.80;;;-0.28;44.18
48156;BME280;35568;48.104;11.782;2023-04-06T00:28:46;95576.02;;;-0.38;44.12
48156;BME280;35568;48.104;11.782;2023-04-06T00:31:12;95575.39;;;-0.34;43.86
48156;BME280;35568;48.104;11.782;2023-04-06T00:33:39;95576.55;;;-0.36;43.85
48156;BME280;35568;48.104;11.782;2023-04-06T00:36:06;95574.90;;;-0.10;43.53
48156;BME280;35568;48.104;11.782;2023-04-06T00:38:33;95574.26;;;-0.29;43.46
48156;BME280;35568;48.104;11.782;2023-04-06T00:41:00;95569.60;;;-0.64;43.95
48156;BME280;35568;48.104;11.782;2023-04-06T00:43:27;95567.98;;;-0.55;43.88
48156;BME280;35568;48.104;11.782;2023-04-06T00:45:54;95569.50;;;-0.50;43.88
48156;BME280;35568;48.104;11.782;2023-04-06T00:48:20;95570.34;;;-0.71;43.95
48156;BME280;35568;48.104;11.782;2023-04-06T00:50:48;95570.62;;;-0.48;44.06
48156;BME280;35568;48.104;11.782;2023-04-06T00:53:14;95569.72;;;-0.62;44.19
48156;BME280;35568;48.104;11.782;2023-04-06T00:55:41;95572.07;;;-0.39;44.05
48156;BME280;35568;48.104;11.782;2023-04-06T00:58:09;95570.28;;;-0.20;43.71
48156;BME280;35568;48.104;11.782;2023-04-06T01:00:36;95570.63;;;0.11;43.76
48156;BME280;35568;48.104;11.782;2023-04-06T01:03:03;95572.20;;;0.07;43.19
48156;BME280;35568;48.104;11.782;2023-04-06T01:05:29;95570.10;;;0.09;43.39
48156;BME280;35568;48.104;11.782;2023-04-06T01:07:57;95572.15;;;0.31;43.06
48156;BME280;35568;48.104;11.782;2023-04-06T01:10:24;95573.70;;;-0.24;43.17
48156;BME280;35568;48.104;11.782;2023-04-06T01:12:51;95570.80;;;-0.16;43.59
48156;BME280;35568;48.104;11.782;2023-04-06T01:15:19;95571.19;;;-0.38;43.63
48156;BME280;35568;48.104;11.782;2023-04-06T01:17:47;95570.46;;;-0.35;43.92
48156;BME280;35568;48.104;11.782;2023-04-06T01:20:14;95569.05;;;-0.72;44.07
48156;BME280;35568;48.104;11.782;2023-04-06T01:22:41;95569.17;;;-0.11;44.63
48156;BME280;35568;48.104;11.782;2023-04-06T01:25:10;95569.18;;;-0.41;44.29
48156;BME280;35568;48.104;11.782;2023-04-06T01:27:37;95566.30;;;0.09;43.74
48156;BME280;35568;48.104;11.782;2023-04-06T01:30:06;95566.54;;;-0.16;43.84
48156;BME280;35568;48.104;11.782;2023-04-06T01:32:33;95564.08;;;-0.46;44.31
48156;BME280;35568;48.104;11.782;2023-04-06T01:35:00;95563.61;;;-0.65;44.51
48156;BME280;35568;48.104;11.782;2023-04-06T01:37:27;95560.47;;;-0.08;44.34
48156;BME280;35568;48.104;11.782;2023-04-06T01:39:54;95560.94;;;-0.19;43.83
48156;BME280;35568;48.104;11.782;2023-04-06T01:42:21;95560.04;;;-0.04;43.62
48156;BME280;35568;48.104;11.782;2023-04-06T01:44:48;95555.56;;;-0.13;43.55
48156;BME280;35568;48.104;11.782;2023-04-06T01:47:15;95554.31;;;-0.03;43.73
48156;BME280;35568;48.104;11.782;2023-04-06T01:49:42;95552.55;;;0.06;43.62
48156;BME280;35568;48.104;11.782;2023-04-06T01:52:09;95551.97;;;-0.06;43.77
48156;BME280;35568;48.104;11.782;2023-04-06T01:54:36;95551.96;;;-0.58;44.20
48156;BME280;35568;48.104;11.782;2023-04-06T01:57:03;95551.33;;;-0.73;44.53
48156;BME280;35568;48.104;11.782;2023-04-06T01:59:29;95551.61;;;-0.70;44.83
48156;BME280;35568;48.104;11.782;2023-04-06T02:01:56;95552.77;;;-0.69;44.84
48156;BME280;35568;48.104;11.782;2023-04-06T02:04:23;95551.63;;;-0.80;44.74
48156;BME280;35568;48.104;11.782;2023-04-06T02:06:50;95553.46;;;-0.68;44.61
48156;BME280;35568;48.104;11.782;2023-04-06T02:09:17;95555.34;;;-0.70;44.75
48156;BME280;35568;48.104;11.782;2023-04-06T02:11:44;95552.59;;;-0.71;44.88
48156;BME280;35568;48.104;11.782;2023-04-06T02:14:11;95551.26;;;-0.60;45.02
48156;BME280;35568;48.104;11.782;2023-04-06T02:16:38;95550.99;;;-0.74;44.97
48156;BME280;35568;48.104;11.782;2023-04-06T02:19:05;95550.52;;;-0.27;44.18
48156;BME280;35568;48.104;11.782;2023-04-06T02:21:32;95552.89;;;-0.58;44.67
48156;BME280;35568;48.104;11.782;2023-04-06T02:23:59;95550.80;;;-0.99;45.02
48156;BME280;35568;48.104;11.782;2023-04-06T02:26:26;95547.00;;;-0.69;45.02
48156;BME280;35568;48.104;11.782;2023-04-06T02:28:53;95546.33;;;-0.92;44.77
48156;BME280;35568;48.104;11.782;2023-04-06T02:31:20;95547.33;;;-0.87;44.69
48156;BME280;35568;48.104;11.782;2023-04-06T02:33:47;95544.31;;;-0.66;45.16
48156;BME280;35568;48.104;11.782;2023-04-06T02:36:14;95545.56;;;-0.60;45.14
48156;BME280;35568;48.104;11.782;2023-04-06T02:38:41;95545.22;;;-0.92;45.16
48156;BME280;35568;48.104;11.782;2023-04-06T02:41:08;95548.44;;;-0.80;45.06
48156;BME280;35568;48.104;11.782;2023-04-06T02:43:35;95548.62;;;-0.97;45.34
48156;BME280;35568;48.104;11.782;2023-04-06T02:46:02;95547.19;;;-0.97;45.44
48156;BME280;35568;48.104;11.782;2023-04-06T02:48:29;95545.43;;;-1.01;45.54
48156;BME280;35568;48.104;11.782;2023-04-06T02:50:56;95542.69;;;-0.97;45.52
48156;BME280;35568;48.104;11.782;2023-04-06T02:53:23;95542.57;;;-1.01;45.50
48156;BME280;35568;48.104;11.782;2023-04-06T02:55:50;95539.46;;;-1.12;45.62
48156;BME280;35568;48.104;11.782;2023-04-06T02:58:17;95542.35;;;-1.02;45.56
48156;BME280;35568;48.104;11.782;2023-04-06T03:03:00;95536.84;;;-0.79;44.51
48156;BME280;35568;48.104;11.782;2023-04-06T03:05:27;95535.15;;;0.26;43.83
48156;BME280;35568;48.104;11.782;2023-04-06T03:07:54;95537.99;;;-0.25;43.99
48156;BME280;35568;48.104;11.782;2023-04-06T03:10:21;95537.69;;;-0.33;44.38
48156;BME280;35568;48.104;11.782;2023-04-06T03:12:48;95542.48;;;-0.63;44.47
48156;BME280;35568;48.104;11.782;2023-04-06T03:15:15;95540.62;;;-0.40;44.37
48156;BME280;35568;48.104;11.782;2023-04-06T03:17:42;95541.14;;;-0.56;44.13
48156;BME280;35568;48.104;11.782;2023-04-06T03:20:09;95543.20;;;-0.29;44.13
48156;BME280;35568;48.104;11.782;2023-04-06T03:22:36;95542.82;;;-0.65;44.27
48156;BME280;35568;48.104;11.782;2023-04-06T03:25:04;95545.36;;;-0.73;44.46
48156;BME280;35568;48.104;11.782;2023-04-06T03:27:31;95550.55;;;-1.07;44.79
48156;BME280;35568;48.104;11.782;2023-04-06T03:29:58;95551.43;;;-1.02;44.85
48156;BME280;35568;48.104;11.782;2023-04-06T03:32:24;95549.99;;;-1.04;45.30
48156;BME280;35568;48.104;11.782;2023-04-06T03:34:51;95548.25;;;-0.87;45.18
48156;BME280;35568;48.104;11.782;2023-04-06T03:37:18;95547.35;;;-0.79;45.05
48156;BME280;35568;48.104;11.782;2023-04-06T03:39:45;95545.69;;;-0.82;44.71
48156;BME280;35568;48.104;11.782;2023-04-06T03:42:12;95546.49;;;-0.50;44.61
48156;BME280;35568;48.104;11.782;2023-04-06T03:44:39;95547.66;;;-0.36;44.46
48156;BME280;35568;48.104;11.782;2023-04-06T03:47:06;95551.45;;;-0.56;44.18
48156;BME280;35568;48.104;11.782;2023-04-06T03:49:33;95550.82;;;-0.50;44.25
48156;BME280;35568;48.104;11.782;2023-04-06T03:52:01;95552.28;;;-0.48;44.09
48156;BME280;35568;48.104;11.782;2023-04-06T03:54:29;95553.76;;;-0.67;44.13
48156;BME280;35568;48.104;11.782;2023-04-06T03:56:56;95555.50;;;-0.66;44.21
48156;BME280;35568;48.104;11.782;2023-04-06T03:59:22;95556.05;;;-0.33;43.97
48156;BME280;35568;48.104;11.782;2023-04-06T04:01:49;95557.69;;;-0.49;43.95
48156;BME280;35568;48.104;11.782;2023-04-06T04:04:16;95557.29;;;-0.67;44.35
48156;BME280;35568;48.104;11.782;2023-04-06T04:06:43;95559.09;;;-0.49;43.69
48156;BME280;35568;48.104;11.782;2023-04-06T04:09:10;95559.85;;;-0.20;44.11
48156;BME280;35568;48.104;11.782;2023-04-06T04:11:36;95559.86;;;-0.49;44.18
48156;BME280;35568;48.104;11.782;2023-04-06T04:14:04;95562.23;;;-0.71;44.03
48156;BME280;35568;48.104;11.782;2023-04-06T04:16:31;95564.59;;;-0.28;43.90
48156;BME280;35568;48.104;11.782;2023-04-06T04:18:58;95563.87;;;-0.51;43.98
48156;BME280;35568;48.104;11.782;2023-04-06T04:21:24;95562.47;;;-0.41;44.25
48156;BME280;35568;48.104;11.782;2023-04-06T04:23:51;95565.66;;;-0.75;44.29
48156;BME280;35568;48.104;11.782;2023-04-06T04:26:18;95572.05;;;-0.98;44.83
48156;BME280;35568;48.104;11.782;2023-04-06T04:28:45;95577.24;;;-1.25;45.09
48156;BME280;35568;48.104;11.782;2023-04-06T04:31:12;95577.87;;;-1.61;45.53
48156;BME280;35568;48.104;11.782;2023-04-06T04:33:39;95580.27;;;-1.60;45.95
48156;BME280;35568;48.104;11.782;2023-04-06T04:36:06;95582.26;;;-1.19;45.69
48156;BME280;35568;48.104;11.782;2023-04-06T04:38:34;95586.53;;;-1.21;45.79
48156;BME280;35568;48.104;11.782;2023-04-06T04:41:01;95582.50;;;-1.50;45.83
48156;BME280;35568;48.104;11.782;2023-04-06T04:43:28;95579.63;;;-1.27;45.90
48156;BME280;35568;48.104;11.782;2023-04-06T04:45:55;95581.02;;;-1.53;46.19
48156;BME280;35568;48.104;11.782;2023-04-06T04:48:22;95579.12;;;-1.61;46.21
48156;BME280;35568;48.104;11.782;2023-04-06T04:50:49;95581.88;;;-1.56;46.24
48156;BME280;35568;48.104;11.782;2023-04-06T04:53:16;95583.38;;;-1.62;46.09
48156;BME280;35568;48.104;11.782;2023-04-06T04:55:42;95585.40;;;-1.54;46.22
48156;BME280;35568;48.104;11.782;2023-04-06T04:58:09;95587.15;;;-1.63;46.35
48156;BME280;35568;48.104;11.782;2023-04-06T05:00:37;95587.62;;;-1.56;46.54
48156;BME280;35568;48.104;11.782;2023-04-06T05:03:04;95587.06;;;-1.18;46.03
48156;BME280;35568;48.104;11.782;2023-04-06T05:05:31;95585.10;;;-0.80;45.34
48156;BME280;35568;48.104;11.782;2023-04-06T05:07:58;95586.89;;;-0.56;45.22
48156;BME280;35568;48.104;11.782;2023-04-06T05:10:25;95582.48;;;-0.36;44.70
48156;BME280;35568;48.104;11.782;2023-04-06T05:12:53;95581.60;;;-1.31;44.65
48156;BME280;35568;48.104;11.782;2023-04-06T05:15:20;95582.04;;;-0.45;44.18
48156;BME280;35568;48.104;11.782;2023-04-06T05:17:47;95580.05;;;-0.17;44.32
48156;BME280;35568;48.104;11.782;2023-04-06T05:20:14;95578.43;;;0.13;44.34
48156;BME280;35568;48.104;11.782;2023-04-06T05:22:41;95580.14;;;-0.18;44.24
48156;BME280;35568;48.104;11.782;2023-04-06T05:25:08;95581.34;;;-0.02;43.88
48156;BME280;35568;48.104;11.782;2023-04-06T05:27:35;95581.88;;;-0.08;43.72
48156;BME280;35568;48.104;11.782;2023-04-06T05:30:03;95585.03;;;-0.12;43.77
48156;BME280;35568;48.104;11.782;2023-04-06T05:32:30;95585.27;;;0.03;43.79
48156;BME280;35568;48.104;11.782;2023-04-06T05:34:57;95586.07;;;-0.06;43.99
48156;BME280;35568;48.104;11.782;2023-04-06T05:37:24;95589.18;;;0.02;43.82
48156;BME280;35568;48.104;11.782;2023-04-06T05:39:51;95586.40;;;0.30;43.67
48156;BME280;35568;48.104;11.782;2023-04-06T05:42:18;95589.95;;;0.55;43.36
48156;BME280;35568;48.104;11.782;2023-04-06T05:44:46;95588.47;;;0.44;43.32
48156;BME280;35568;48.104;11.782;2023-04-06T05:47:13;95589.66;;;0.99;43.33
48156;BME280;35568;48.104;11.782;2023-04-06T05:49:41;95587.48;;;1.20;42.77
48156;BME280;35568;48.104;11.782;2023-04-06T05:52:08;95587.49;;;0.77;42.65
48156;BME280;35568;48.104;11.782;2023-04-06T05:54:35;95586.98;;;0.84;42.35
48156;BME280;35568;48.104;11.782;2023-04-06T05:57:02;95587.73;;;1.11;42.71
48156;BME280;35568;48.104;11.782;2023-04-06T05:59:30;95588.22;;;1.21;42.65
48156;BME280;35568;48.104;11.782;2023-04-06T06:01:57;95585.19;;;1.47;42.32
48156;BME280;35568;48.104;11.782;2023-04-06T06:04:24;95587.84;;;1.43;42.16
48156;BME280;35568;48.104;11.782;2023-04-06T06:06:51;95589.63;;;1.47;41.29
48156;BME280;35568;48.104;11.782;2023-04-06T06:09:18;95593.78;;;1.73;41.36
48156;BME280;35568;48.104;11.782;2023-04-06T06:11:44;95592.43;;;1.99;41.11
48156;BME280;35568;48.104;11.782;2023-04-06T06:14:11;95592.57;;;2.16;40.64
48156;BME280;35568;48.104;11.782;2023-04-06T06:16:38;95589.94;;;2.10;41.14
48156;BME280;35568;48.104;11.782;2023-04-06T06:19:04;95592.26;;;2.49;41.73
48156;BME280;35568;48.104;11.782;2023-04-06T06:21:31;95594.75;;;2.44;41.37
48156;BME280;35568;48.104;11.782;2023-04-06T06:23:58;95596.63;;;3.06;40.21
48156;BME280;35568;48.104;11.782;2023-04-06T06:26:25;95599.68;;;2.92;40.13
48156;BME280;35568;48.104;11.782;2023-04-06T06:28:52;95600.14;;;3.17;39.35
48156;BME280;35568;48.104;11.782;2023-04-06T06:31:19;95596.95;;;3.76;39.95
48156;BME280;35568;48.104;11.782;2023-04-06T06:33:46;95597.94;;;3.85;40.26
48156;BME280;35568;48.104;11.782;2023-04-06T06:36:13;95598.08;;;4.46;40.70
48156;BME280;35568;48.104;11.782;2023-04-06T06:38:40;95601.36;;;4.30;37.51
48156;BME280;35568;48.104;11.782;2023-04-06T06:41:07;95603.52;;;4.18;38.47
48156;BME280;35568;48.104;11.782;2023-04-06T06:43:33;95600.81;;;4.96;38.77
48156;BME280;35568;48.104;11.782;2023-04-06T06:46:00;95601.47;;;5.16;37.96
48156;BME280;35568;48.104;11.782;2023-04-06T06:48:27;95604.60;;;4.99;36.73
48156;BME280;35568;48.104;11.782;2023-04-06T06:50:54;95603.93;;;5.89;36.03
48156;BME280;35568;48.104;11.782;2023-04-06T06:53:22;95602.99;;;5.51;36.22
48156;BME280;35568;48.104;11.782;2023-04-06T06:55:49;95604.65;;;5.60;36.10
48156;BME280;35568;48.104;11.782;2023-04-06T06:58:18;95607.90;;;5.00;35.54
48156;BME280;35568;48.104;11.782;2023-04-06T07:00:45;95607.57;;;6.04;35.00
48156;BME280;35568;48.104;11.782;2023-04-06T07:03:12;95608.34;;;5.93;34.73
48156;BME280;35568;48.104;11.782;2023-04-06T07:05:45;95613.08;;;6.38;34.11
48156;BME280;35568;48.104;11.782;2023-04-06T07:08:12;95611.58;;;6.16;35.29
48156;BME280;35568;48.104;11.782;2023-04-06T07:10:39;95612.23;;;6.89;33.92
48156;BME280;35568;48.104;11.782;2023-04-06T07:13:06;95612.71;;;5.75;34.14
48156;BME280;35568;48.104;11.782;2023-04-06T07:15:32;95613.33;;;6.15;33.64
48156;BME280;35568;48.104;11.782;2023-04-06T07:17:59;95611.21;;;6.05;33.79
48156;BME280;35568;48.104;11.782;2023-04-06T07:20:26;95611.22;;;6.63;33.57
48156;BME280;35568;48.104;11.782;2023-04-06T07:22:53;95605.37;;;7.27;33.39
48156;BME280;35568;48.104;11.782;2023-04-06T07:25:20;95605.88;;;7.76;33.78
48156;BME280;35568;48.104;11.782;2023-04-06T07:27:47;95606.03;;;7.89;32.15
48156;BME280;35568;48.104;11.782;2023-04-06T07:30:14;95606.64;;;8.48;31.80
48156;BME280;35568;48.104;11.782;2023-04-06T07:32:41;95607.44;;;8.77;31.05
48156;BME280;35568;48.104;11.782;2023-04-06T07:35:08;95609.11;;;8.53;30.54
48156;BME280;35568;48.104;11.782;2023-04-06T07:37:35;95610.64;;;8.56;29.55
48156;BME280;35568;48.104;11.782;2023-04-06T07:40:01;95611.26;;;8.74;29.98
48156;BME280;35568;48.104;11.782;2023-04-06T07:42:28;95611.32;;;8.88;30.55
48156;BME280;35568;48.104;11.782;2023-04-06T07:44:54;95605.80;;;9.37;29.59
48156;BME280;35568;48.104;11.782;2023-04-06T07:47:22;95610.23;;;8.92;28.56
48156;BME280;35568;48.104;11.782;2023-04-06T07:49:49;95605.67;;;9.25;28.61
48156;BME280;35568;48.104;11.782;2023-04-06T07:52:16;95603.71;;;9.92;27.96
48156;BME280;35568;48.104;11.782;2023-04-06T07:54:43;95602.91;;;9.53;28.37
48156;BME280;35568;48.104;11.782;2023-04-06T07:57:10;95603.97;;;9.20;28.03
48156;BME280;35568;48.104;11.782;2023-04-06T07:59:37;95601.61;;;9.63;27.82
48156;BME280;35568;48.104;11.782;2023-04-06T08:02:04;95599.53;;;10.11;27.48
48156;BME280;35568;48.104;11.782;2023-04-06T08:04:31;95598.35;;;9.39;27.76
48156;BME280;35568;48.104;11.782;2023-04-06T08:06:58;95602.22;;;9.56;27.33
48156;BME280;35568;48.104;11.782;2023-04-06T08:09:25;95599.74;;;9.50;27.20
48156;BME280;35568;48.104;11.782;2023-04-06T08:11:52;95600.41;;;10.20;26.64
48156;BME280;35568;48.104;11.782;2023-04-06T08:14:19;95602.77;;;10.49;26.03
48156;BME280;35568;48.104;11.782;2023-04-06T08:16:46;95603.03;;;9.97;26.22
48156;BME280;35568;48.104;11.782;2023-04-06T08:19:13;95605.13;;;9.98;26.22
48156;BME280;35568;48.104;11.782;2023-04-06T08:21:40;95599.55;;;10.54;25.34
48156;BME280;35568;48.104;11.782;2023-04-06T08:24:07;95600.77;;;10.80;25.21
48156;BME280;35568;48.104;11.782;2023-04-06T08:26:34;95601.52;;;11.06;24.49
48156;BME280;35568;48.104;11.782;2023-04-06T08:29:01;95599.81;;;11.37;23.46
48156;BME280;35568;48.104;11.782;2023-04-06T08:31:29;95600.21;;;11.76;23.45
48156;BME280;35568;48.104;11.782;2023-04-06T08:33:56;95600.44;;;11.73;23.35
48156;BME280;35568;48.104;11.782;2023-04-06T08:36:24;95602.57;;;12.60;22.68
48156;BME280;35568;48.104;11.782;2023-04-06T08:38:51;95601.38;;;12.24;21.69
48156;BME280;35568;48.104;11.782;2023-04-06T08:41:18;95598.86;;;11.67;22.59
48156;BME280;35568;48.104;11.782;2023-04-06T08:43:47;95601.24;;;12.42;22.66
48156;BME280;35568;48.104;11.782;2023-04-06T08:46:15;95596.60;;;12.59;22.50
48156;BME280;35568;48.104;11.782;2023-04-06T08:48:43;95594.66;;;12.30;23.05
48156;BME280;35568;48.104;11.782;2023-04-06T08:51:10;95597.09;;;12.07;22.50
48156;BME280;35568;48.104;11.782;2023-04-06T08:53:37;95593.63;;;12.15;23.02
48156;BME280;35568;48.104;11.782;2023-04-06T08:56:05;95601.05;;;12.53;23.07
48156;BME280;35568;48.104;11.782;2023-04-06T08:58:34;95602.63;;;12.83;22.82
48156;BME280;35568;48.104;11.782;2023-04-06T09:01:05;95603.69;;;13.54;21.53
48156;BME280;35568;48.104;11.782;2023-04-06T09:03:36;95594.68;;;14.10;20.91
48156;BME280;35568;48.104;11.782;2023-04-06T09:06:03;95594.02;;;14.57;20.50
48156;BME280;35568;48.104;11.782;2023-04-06T09:08:30;95589.86;;;14.63;20.09
48156;BME280;35568;48.104;11.782;2023-04-06T09:10:58;95594.23;;;14.51;20.26
48156;BME280;35568;48.104;11.782;2023-04-06T09:13:25;95594.16;;;14.65;20.14
48156;BME280;35568;48.104;11.782;2023-04-06T09:15:59;95591.64;;;15.00;19.96
48156;BME280;35568;48.104;11.782;2023-04-06T09:18:30;95589.27;;;14.58;20.05
48156;BME280;35568;48.104;11.782;2023-04-06T09:20:58;95590.96;;;14.65;20.45
48156;BME280;35568;48.104;11.782;2023-04-06T09:23:26;95584.42;;;14.82;19.84
48156;BME280;35568;48.104;11.782;2023-04-06T09:26:05;95589.89;;;15.17;19.66
48156;BME280;35568;48.104;11.782;2023-04-06T09:28:43;95585.26;;;15.34;19.93
48156;BME280;35568;48.104;11.782;2023-04-06T09:31:10;95584.85;;;15.63;19.40
48156;BME280;35568;48.104;11.782;2023-04-06T09:33:38;95581.00;;;16.19;18.91
48156;BME280;35568;48.104;11.782;2023-04-06T09:36:05;95578.06;;;16.64;19.53
48156;BME280;35568;48.104;11.782;2023-04-06T09:38:32;95580.16;;;16.77;19.23
48156;BME280;35568;48.104;11.782;2023-04-06T09:40:59;95580.77;;;16.69;18.85
48156;BME280;35568;48.104;11.782;2023-04-06T09:43:27;95580.42;;;15.38;18.09
48156;BME280;35568;48.104;11.782;2023-04-06T09:45:55;95575.11;;;14.48;19.69
48156;BME280;35568;48.104;11.782;2023-04-06T09:48:24;95573.99;;;15.49;19.81
48156;BME280;35568;48.104;11.782;2023-04-06T09:50:58;95571.84;;;16.27;19.20
48156;BME280;35568;48.104;11.782;2023-04-06T09:53:26;95568.40;;;16.82;18.85
48156;BME280;35568;48.104;11.782;2023-04-06T09:55:58;95568.43;;;16.79;18.58
48156;BME280;35568;48.104;11.782;2023-04-06T09:58:33;95568.39;;;17.47;19.16
48156;BME280;35568;48.104;11.782;2023-04-06T10:01:05;95564.57;;;17.92;19.30
48156;BME280;35568;48.104;11.782;2023-04-06T10:03:39;95564.94;;;17.00;17.83
48156;BME280;35568;48.104;11.782;2023-04-06T10:06:13;95565.78;;;18.47;18.03
48156;BME280;35568;48.104;11.782;2023-04-06T10:08:43;95566.09;;;18.43;18.05
48156;BME280;35568;48.104;11.782;2023-04-06T10:11:12;95561.05;;;19.04;17.37
48156;BME280;35568;48.104;11.782;2023-04-06T10:13:40;95558.20;;;18.77;17.16
48156;BME280;35568;48.104;11.782;2023-04-06T10:16:07;95561.64;;;18.56;17.04
48156;BME280;35568;48.104;11.782;2023-04-06T10:18:35;95564.53;;;18.31;16.85
48156;BME280;35568;48.104;11.782;2023-04-06T10:21:06;95562.56;;;17.65;17.05
48156;BME280;35568;48.104;11.782;2023-04-06T10:23:36;95559.45;;;16.79;18.08
48156;BME280;35568;48.104;11.782;2023-04-06T10:26:13;95561.61;;;16.32;18.43
48156;BME280;35568;48.104;11.782;2023-04-06T10:28:42;95560.18;;;15.46;18.81
48156;BME280;35568;48.104;11.782;2023-04-06T10:31:09;95557.94;;;15.33;19.25
48156;BME280;35568;48.104;11.782;2023-04-06T10:33:36;95557.80;;;15.60;19.20
48156;BME280;35568;48.104;11.782;2023-04-06T10:36:11;95552.66;;;16.69;18.16
48156;BME280;35568;48.104;11.782;2023-04-06T10:38:39;95548.70;;;15.91;18.08
48156;BME280;35568;48.104;11.782;2023-04-06T10:41:08;95547.71;;;16.13;18.49
48156;BME280;35568;48.104;11.782;2023-04-06T10:43:37;95544.32;;;17.26;17.89
48156;BME280;35568;48.104;11.782;2023-04-06T10:46:05;95542.31;;;16.60;17.81
48156;BME280;35568;48.104;11.782;2023-04-06T10:48:41;95542.53;;;17.20;17.91
48156;BME280;35568;48.104;11.782;2023-04-06T10:51:09;95542.00;;;18.40;17.23
48156;BME280;35568;48.104;11.782;2023-04-06T10:53:37;95537.29;;;17.43;17.87
48156;BME280;35568;48.104;11.782;2023-04-06T10:56:09;95535.62;;;16.36;18.37
48156;BME280;35568;48.104;11.782;2023-04-06T10:58:37;95529.99;;;15.57;19.08
48156;BME280;35568;48.104;11.782;2023-04-06T11:01:05;95533.68;;;15.34;18.98
48156;BME280;35568;48.104;11.782;2023-04-06T11:03:31;95535.41;;;15.02;19.03
48156;BME280;35568;48.104;11.782;2023-04-06T11:05:58;95532.26;;;14.82;20.04
48156;BME280;35568;48.104;11.782;2023-04-06T11:08:27;95530.98;;;14.65;20.00
48156;BME280;35568;48.104;11.782;2023-04-06T11:11:05;95531.44;;;13.27;19.67
48156;BME280;35568;48.104;11.782;2023-04-06T11:13:41;95528.58;;;13.33;19.92
48156;BME280;35568;48.104;11.782;2023-04-06T11:16:13;95529.86;;;13.22;20.32
48156;BME280;35568;48.104;11.782;2023-04-06T11:18:47;95519.70;;;14.39;20.58
48156;BME280;35568;48.104;11.782;2023-04-06T11:21:15;95518.77;;;14.38;19.61
48156;BME280;35568;48.104;11.782;2023-04-06T11:23:42;95515.13;;;13.91;19.58
48156;BME280;35568;48.104;11.782;2023-04-06T11:26:11;95512.65;;;15.24;19.23
48156;BME280;35568;48.104;11.782;2023-04-06T11:28:38;95509.13;;;16.24;18.33
48156;BME280;35568;48.104;11.782;2023-04-06T11:31:05;95508.01;;;16.73;18.10
48156;BME280;35568;48.104;11.782;2023-04-06T11:33:35;95508.30;;;16.60;17.24
48156;BME280;35568;48.104;11.782;2023-04-06T11:36:03;95503.87;;;16.11;17.04
48156;BME280;35568;48.104;11.782;2023-04-06T11:38:30;95502.27;;;16.60;17.85
48156;BME280;35568;48.104;11.782;2023-04-06T11:40:56;95491.23;;;16.54;17.91
48156;BME280;35568;48.104;11.782;2023-04-06T11:43:27;95491.73;;;15.71;17.10
48156;BME280;35568;48.104;11.782;2023-04-06T11:45:59;95497.35;;;14.86;17.82
48156;BME280;35568;48.104;11.782;2023-04-06T11:48:27;95494.46;;;14.30;17.92
48156;BME280;35568;48.104;11.782;2023-04-06T11:50:56;95492.78;;;14.78;18.19
48156;BME280;35568;48.104;11.782;2023-04-06T11:53:23;95494.22;;;14.72;18.54
48156;BME280;35568;48.104;11.782;2023-04-06T11:55:50;95493.24;;;15.03;18.04
48156;BME280;35568;48.104;11.782;2023-04-06T11:58:17;95487.53;;;14.32;17.83
48156;BME280;35568;48.104;11.782;2023-04-06T12:00:44;95487.46;;;14.09;18.38
48156;BME280;35568;48.104;11.782;2023-04-06T12:03:11;95485.31;;;13.58;18.94
48156;BME280;35568;48.104;11.782;2023-04-06T12:05:39;95487.28;;;14.26;19.42
48156;BME280;35568;48.104;11.782;2023-04-06T12:08:06;95485.98;;;14.21;19.09
48156;BME280;35568;48.104;11.782;2023-04-06T12:10:34;95485.32;;;14.14;19.81
48156;BME280;35568;48.104;11.782;2023-04-06T12:13:00;95481.69;;;14.25;20.34
48156;BME280;35568;48.104;11.782;2023-04-06T12:15:28;95476.83;;;15.53;19.81
48156;BME280;35568;48.104;11.782;2023-04-06T12:17:55;95471.71;;;15.96;19.10
48156;BME280;35568;48.104;11.782;2023-04-06T12:20:22;95473.08;;;15.57;19.15
48156;BME280;35568;48.104;11.782;2023-04-06T12:22:49;95471.56;;;15.30;19.06
48156;BME280;35568;48.104;11.782;2023-04-06T12:25:16;95465.90;;;15.22;18.36
48156;BME280;35568;48.104;11.782;2023-04-06T12:27:43;95462.06;;;14.35;19.31
48156;BME280;35568;48.104;11.782;2023-04-06T12:30:12;95464.40;;;13.54;19.98
48156;BME280;35568;48.104;11.782;2023-04-06T12:32:39;95464.13;;;13.41;20.23
48156;BME280;35568;48.104;11.782;2023-04-06T12:35:06;95465.22;;;13.46;20.32
48156;BME280;35568;48.104;11.782;2023-04-06T12:37:33;95462.92;;;13.51;20.00
48156;BME280;35568;48.104;11.782;2023-04-06T12:40:01;95459.35;;;13.44;20.29
48156;BME280;35568;48.104;11.782;2023-04-06T12:42:28;95457.74;;;13.50;20.46
48156;BME280;35568;48.104;11.782;2023-04-06T12:44:55;95453.77;;;13.67;20.07
48156;BME280;35568;48.104;11.782;2023-04-06T12:47:22;95454.72;;;13.21;21.03
48156;BME280;35568;48.104;11.782;2023-04-06T12:49:49;95454.97;;;13.59;20.81
48156;BME280;35568;48.104;11.782;2023-04-06T12:52:16;95458.15;;;13.35;20.67
48156;BME280;35568;48.104;11.782;2023-04-06T12:54:44;95454.06;;;13.02;20.06
48156;BME280;35568;48.104;11.782;2023-04-06T12:57:10;95452.30;;;13.45;20.02